Midelt, Morocco
Current Conditions -  °F | °C
As of 1:00 PM on Tuesday 27 Jan 2015 (Local Time) from GMFK Reporting Station
Clear Clear  
Wind Chill: 59°   Ceiling: Unl
Heat Index: 59°   Visibility: 6mi
Dew Point: 19°   Wind: 3mph
Humidity: 22%   Direction: 140°SE
Pressure: 30.36"   Gusts: NA
Location:  32.7°N, 4.74°W
Report Text: GMFK 271200Z 14003KT 090V220 CAVOK 15/M07 Q1028 NOSIG
Loading
Personal Weather Stations






























Interactive Weather Map New forecast layout! Learn more

10-Day Weather Forecast

Advertisements
Track Severe Weather on mobile